createdAt,value
2019-04-16T00:01:56.163Z,99797.62
2019-04-16T00:04:56.925Z,99798.77
2019-04-16T00:07:50.262Z,99802.06
2019-04-16T00:10:44.230Z,99805.04
2019-04-16T00:13:21.504Z,99800.94
2019-04-16T00:15:52.237Z,99805.53
2019-04-16T00:18:21.631Z,99807.53
2019-04-16T00:21:15.978Z,99805.00
2019-04-16T00:24:20.047Z,99808.63
2019-04-16T00:26:52.520Z,99803.90
2019-04-16T00:29:21.928Z,99804.16
2019-04-16T00:31:55.148Z,99805.08
2019-04-16T00:34:24.645Z,99805.69
2019-04-16T00:36:54.009Z,99803.52
2019-04-16T00:39:25.515Z,99801.98
2019-04-16T00:41:55.466Z,99809.49
2019-04-16T00:44:25.437Z,99806.86
2019-04-16T00:46:54.947Z,99803.19
2019-04-16T00:49:26.556Z,99799.62
2019-04-16T00:51:55.684Z,99802.73
2019-04-16T00:54:25.338Z,99809.78
2019-04-16T00:56:55.074Z,99806.47
2019-04-16T00:59:24.960Z,99811.98
2019-04-16T01:01:54.480Z,99813.73
2019-04-16T01:04:23.900Z,99812.27
2019-04-16T01:06:53.368Z,99822.81
2019-04-16T01:09:22.917Z,99830.89
2019-04-16T01:11:52.286Z,99834.85
2019-04-16T01:14:24.281Z,99829.86
2019-04-16T01:16:52.895Z,99830.86
2019-04-16T01:19:22.464Z,99829.80
2019-04-16T01:21:51.837Z,99826.09
2019-04-16T01:24:21.346Z,99824.38
2019-04-16T01:26:50.717Z,99821.64
2019-04-16T01:29:20.156Z,99822.74
2019-04-16T01:32:12.135Z,99825.98
2019-04-16T01:35:03.656Z,99827.41
2019-04-16T01:37:56.556Z,99826.48
2019-04-16T01:40:28.856Z,99825.98
2019-04-16T01:42:58.360Z,99827.40
2019-04-16T01:45:29.889Z,99817.40
2019-04-16T01:47:58.943Z,99815.15
2019-04-16T01:50:28.395Z,99812.13
2019-04-16T01:52:57.891Z,99809.25
2019-04-16T01:55:27.417Z,99810.28
2019-04-16T01:57:59.651Z,99806.14
2019-04-16T02:00:28.287Z,99806.47
2019-04-16T02:02:57.993Z,99803.23
2019-04-16T02:05:28.734Z,99803.12
2019-04-16T02:07:59.242Z,99803.23
2019-04-16T02:10:29.254Z,99807.64
2019-04-16T02:12:58.719Z,99811.20
2019-04-16T02:15:28.183Z,99818.00
2019-04-16T02:17:58.731Z,99817.28
2019-04-16T02:20:28.723Z,99815.68
2019-04-16T02:22:58.230Z,99821.95
2019-04-16T02:25:27.704Z,99816.87
2019-04-16T02:27:57.764Z,99819.25
2019-04-16T02:30:27.275Z,99817.80
2019-04-16T02:32:56.745Z,99808.49
2019-04-16T02:35:26.488Z,99806.72
2019-04-16T02:37:55.849Z,99809.48
2019-04-16T02:40:25.225Z,99803.67
2019-04-16T02:42:55.327Z,99805.67
2019-04-16T02:45:24.698Z,99802.50
2019-04-16T02:47:54.264Z,99796.16
2019-04-16T02:50:44.998Z,99797.02
2019-04-16T02:53:54.455Z,99808.56
2019-04-16T02:56:42.005Z,99804.34
2019-04-16T02:59:15.510Z,99806.06
2019-04-16T03:02:07.057Z,99805.20
2019-04-16T03:04:41.405Z,99806.06
2019-04-16T03:07:10.903Z,99806.06
2019-04-16T03:09:41.004Z,99813.69
2019-04-16T03:12:10.868Z,99806.53
2019-04-16T03:14:40.237Z,99801.97
2019-04-16T03:17:42.850Z,99800.11
2019-04-16T03:20:12.239Z,99795.83
2019-04-16T03:22:41.973Z,99799.61
2019-04-16T03:25:13.878Z,99804.88
2019-04-16T03:27:42.533Z,99801.43
2019-04-16T03:30:12.338Z,99797.55
2019-04-16T03:32:50.694Z,99806.59
2019-04-16T03:35:25.481Z,99807.23
2019-04-16T03:37:51.681Z,99816.78
2019-04-16T03:40:24.877Z,99819.56
2019-04-16T03:42:52.426Z,99824.37
2019-04-16T03:45:21.909Z,99822.91
2019-04-16T03:47:52.345Z,99818.17
2019-04-16T03:50:21.921Z,99821.60
2019-04-16T03:52:51.413Z,99826.48
2019-04-16T03:55:25.266Z,99820.82
2019-04-16T03:57:52.151Z,99819.18
2019-04-16T04:00:21.548Z,99824.20
2019-04-16T04:02:53.827Z,99811.48
2019-04-16T04:05:22.110Z,99817.41
2019-04-16T04:07:51.535Z,99813.82
2019-04-16T04:10:30.301Z,99823.81
2019-04-16T04:12:52.288Z,99821.81
2019-04-16T04:15:26.013Z,99823.56
2019-04-16T04:17:52.873Z,99829.98
2019-04-16T04:20:22.345Z,99827.80
2019-04-16T04:22:56.776Z,99834.37
2019-04-16T04:25:23.342Z,99837.16
2019-04-16T04:27:52.840Z,99840.58
2019-04-16T04:30:25.657Z,99846.97
2019-04-16T04:32:56.809Z,99848.94
2019-04-16T04:35:26.184Z,99845.20
2019-04-16T04:37:55.595Z,99854.34
2019-04-16T04:40:26.611Z,99856.73
2019-04-16T04:42:57.698Z,99855.43
2019-04-16T04:45:28.144Z,99856.22
2019-04-16T04:47:57.652Z,99864.35
2019-04-16T04:50:27.065Z,99861.66
2019-04-16T04:52:56.458Z,99864.89
2019-04-16T04:55:26.942Z,99856.39
2019-04-16T04:57:56.614Z,99865.38
2019-04-16T05:00:26.015Z,99862.21
2019-04-16T05:02:55.396Z,99855.16
2019-04-16T05:05:32.748Z,99857.27
2019-04-16T05:08:02.219Z,99860.29
2019-04-16T05:10:31.741Z,99857.72
2019-04-16T05:13:01.187Z,99852.72
2019-04-16T05:15:30.695Z,99845.95
2019-04-16T05:18:00.203Z,99844.41
2019-04-16T05:20:30.176Z,99844.30
2019-04-16T05:22:59.674Z,99851.78
2019-04-16T05:25:32.970Z,99854.50
2019-04-16T05:28:00.324Z,99860.67
2019-04-16T05:30:29.795Z,99858.96
2019-04-16T05:32:59.294Z,99866.96
2019-04-16T05:35:28.676Z,99865.61
2019-04-16T05:37:58.063Z,99867.62
2019-04-16T05:40:34.021Z,99870.69
2019-04-16T05:42:59.639Z,99867.61
2019-04-16T05:45:29.178Z,99870.20
2019-04-16T05:47:58.637Z,99870.47
2019-04-16T05:50:29.692Z,99865.23
2019-04-16T05:52:59.537Z,99869.77
2019-04-16T05:55:49.919Z,99868.94
2019-04-16T05:58:19.438Z,99867.59
2019-04-16T06:01:13.614Z,99865.26
2019-04-16T06:03:43.504Z,99866.14
2019-04-16T06:06:12.891Z,99868.97
2019-04-16T06:08:42.402Z,99865.39
2019-04-16T06:11:11.889Z,99856.34
2019-04-16T06:14:06.180Z,99858.66
2019-04-16T06:17:10.583Z,99859.50
2019-04-16T06:20:00.811Z,99855.95
2019-04-16T06:22:55.407Z,99859.98
2019-04-16T06:25:32.378Z,99862.03
2019-04-16T06:28:12.850Z,99866.22
2019-04-16T06:30:49.371Z,99865.00
2019-04-16T06:33:24.035Z,99869.16
2019-04-16T06:36:21.256Z,99856.47
2019-04-16T06:39:09.343Z,99864.41
2019-04-16T06:42:06.532Z,99857.56
2019-04-16T06:44:42.033Z,99861.98
2019-04-16T06:47:26.993Z,99858.06
2019-04-16T06:50:04.055Z,99860.12
2019-04-16T06:52:50.560Z,99862.89
2019-04-16T06:55:24.917Z,99867.11
2019-04-16T06:58:12.534Z,99862.77
2019-04-16T07:01:22.492Z,99860.53
2019-04-16T07:04:00.445Z,99860.06
2019-04-16T07:06:48.852Z,99867.41
2019-04-16T07:09:41.694Z,99861.56
2019-04-16T07:12:19.702Z,99864.25
2019-04-16T07:14:49.369Z,99861.48
2019-04-16T07:17:18.968Z,99858.34
2019-04-16T07:19:48.378Z,99862.16
2019-04-16T07:22:21.421Z,99856.84
2019-04-16T07:24:55.956Z,99858.75
2019-04-16T07:27:27.901Z,99854.95
2019-04-16T07:30:06.807Z,99847.16
2019-04-16T07:32:48.645Z,99856.27
2019-04-16T07:35:41.897Z,99851.91
2019-04-16T07:38:30.347Z,99846.52
2019-04-16T07:41:21.522Z,99840.30
2019-04-16T07:44:08.056Z,99832.77
2019-04-16T07:46:50.838Z,99838.20
2019-04-16T07:49:48.131Z,99830.02
2019-04-16T07:52:42.730Z,99829.16
2019-04-16T07:55:34.290Z,99832.08
2019-04-16T07:58:05.923Z,99828.55
2019-04-16T08:00:40.188Z,99829.53
2019-04-16T08:03:06.627Z,99826.69
2019-04-16T08:05:37.732Z,99828.19
2019-04-16T08:08:07.195Z,99825.99
2019-04-16T08:10:36.767Z,99824.58
2019-04-16T08:13:13.863Z,99809.22
2019-04-16T08:15:41.832Z,99807.61
2019-04-16T08:18:11.280Z,99806.39
2019-04-16T08:20:40.679Z,99813.59
2019-04-16T08:23:29.093Z,99813.41
2019-04-16T08:26:03.475Z,99798.43
2019-04-16T08:28:30.528Z,99796.61
2019-04-16T08:31:00.293Z,99797.53
2019-04-16T08:33:29.867Z,99793.66
2019-04-16T08:35:59.375Z,99786.53
2019-04-16T08:38:34.040Z,99790.07
2019-04-16T08:40:59.983Z,99786.90
2019-04-16T08:43:29.967Z,99781.49
2019-04-16T08:45:59.882Z,99784.72
2019-04-16T08:48:29.303Z,99773.66
2019-04-16T08:50:59.207Z,99776.98
2019-04-16T08:53:28.905Z,99768.70
2019-04-16T08:55:58.411Z,99763.25
2019-04-16T08:58:27.893Z,99764.25
2019-04-16T09:00:57.381Z,99765.86
2019-04-16T09:03:29.893Z,99762.41
2019-04-16T09:05:57.958Z,99765.92
2019-04-16T09:08:52.856Z,99760.73
2019-04-16T09:11:23.517Z,99752.20
2019-04-16T09:13:58.031Z,99755.97
2019-04-16T09:16:27.511Z,99758.13
2019-04-16T09:19:05.599Z,99753.16
2019-04-16T09:21:35.085Z,99752.67
2019-04-16T09:24:22.298Z,99744.08
2019-04-16T09:27:01.794Z,99747.59
2019-04-16T09:29:50.197Z,99739.12
2019-04-16T09:32:38.603Z,99732.29
2019-04-16T09:35:21.679Z,99733.66
2019-04-16T09:38:12.981Z,99729.19
2019-04-16T09:41:02.934Z,99720.47
2019-04-16T09:43:33.224Z,99715.89
2019-04-16T09:46:10.245Z,99711.73
2019-04-16T09:48:34.817Z,99714.21
2019-04-16T09:51:05.096Z,99704.36
2019-04-16T09:53:39.947Z,99697.80
2019-04-16T09:56:26.623Z,99694.17
2019-04-16T09:58:54.521Z,99694.35
2019-04-16T10:01:29.405Z,99689.13
2019-04-16T10:03:58.858Z,99688.73
2019-04-16T10:06:28.316Z,99687.81
2019-04-16T10:08:57.836Z,99676.59
2019-04-16T10:11:27.264Z,99677.44
2019-04-16T10:13:57.797Z,99673.41
2019-04-16T10:16:29.205Z,99673.84
2019-04-16T10:18:58.652Z,99670.17
2019-04-16T10:21:29.174Z,99665.41
2019-04-16T10:24:29.923Z,99659.95
2019-04-16T10:27:00.597Z,99656.02
2019-04-16T10:29:30.072Z,99658.20
2019-04-16T10:31:59.610Z,99654.62
2019-04-16T10:34:29.106Z,99646.38
2019-04-16T10:36:58.561Z,99649.41
2019-04-16T10:39:46.889Z,99635.06
2019-04-16T10:42:38.321Z,99634.16
2019-04-16T10:45:33.779Z,99632.54
2019-04-16T10:48:25.145Z,99625.15
2019-04-16T10:51:15.536Z,99623.11
2019-04-16T10:53:54.362Z,99623.11
2019-04-16T10:56:45.674Z,99615.49
2019-04-16T10:59:32.690Z,99614.66
2019-04-16T11:02:38.998Z,99614.66
2019-04-16T11:05:33.449Z,99596.81
2019-04-16T11:08:04.213Z,99611.61
2019-04-16T11:10:35.032Z,99606.17
2019-04-16T11:13:06.472Z,99601.42
2019-04-16T11:15:35.984Z,99595.69
2019-04-16T11:18:06.629Z,99591.33
2019-04-16T11:20:36.128Z,99585.98
2019-04-16T11:23:07.502Z,99577.12
2019-04-16T11:25:37.136Z,99579.09
2019-04-16T11:28:06.558Z,99566.36
2019-04-16T11:30:39.116Z,99566.36
2019-04-16T11:33:10.005Z,99566.22
2019-04-16T11:35:39.391Z,99567.92
2019-04-16T11:38:09.032Z,99560.88
2019-04-16T11:40:41.048Z,99556.66
2019-04-16T11:43:09.670Z,99548.94
2019-04-16T11:45:39.160Z,99545.34
2019-04-16T11:48:08.647Z,99546.69
2019-04-16T11:50:38.167Z,99540.47
2019-04-16T11:53:07.842Z,99535.48
2019-04-16T11:55:37.320Z,99530.88
2019-04-16T11:58:12.128Z,99532.91
2019-04-16T12:00:55.631Z,99525.12
2019-04-16T12:03:42.965Z,99519.94
2019-04-16T12:06:28.774Z,99510.22
2019-04-16T12:09:32.552Z,99505.06
2019-04-16T12:12:06.987Z,99507.73
2019-04-16T12:14:55.330Z,99504.52
2019-04-16T12:18:02.339Z,99500.39
2019-04-16T12:20:50.739Z,99490.66
2019-04-16T12:23:29.521Z,99477.14
2019-04-16T12:26:16.996Z,99467.78
2019-04-16T12:29:00.798Z,99460.52
2019-04-16T12:31:46.606Z,99467.43
2019-04-16T12:34:24.558Z,99464.92
2019-04-16T12:37:15.889Z,99468.43
2019-04-16T12:40:07.185Z,99465.29
2019-04-16T12:42:58.570Z,99458.09
2019-04-16T12:45:40.199Z,99460.38
2019-04-16T12:48:31.480Z,99462.62
2019-04-16T12:51:22.853Z,99455.41
2019-04-16T12:54:07.468Z,99453.04
2019-04-16T12:56:59.936Z,99448.30
2019-04-16T12:59:59.736Z,99431.66
2019-04-16T13:02:57.205Z,99431.72
2019-04-16T13:05:40.470Z,99427.77
2019-04-16T13:08:31.822Z,99422.56
2019-04-16T13:11:32.008Z,99428.89
2019-04-16T13:14:32.806Z,99417.38
2019-04-16T13:17:25.775Z,99418.50
2019-04-16T13:20:08.928Z,99423.52
2019-04-16T13:22:45.807Z,99418.55
2019-04-16T13:25:25.478Z,99412.80
2019-04-16T13:27:54.895Z,99422.80
2019-04-16T13:30:24.338Z,99419.81
2019-04-16T13:32:53.830Z,99428.38
2019-04-16T13:35:23.303Z,99437.64
2019-04-16T13:37:55.229Z,99434.89
2019-04-16T13:40:24.890Z,99439.20
2019-04-16T13:42:54.397Z,99451.73
2019-04-16T13:45:29.202Z,99448.25
2019-04-16T13:48:14.511Z,99451.05
2019-04-16T13:50:52.011Z,99452.33
2019-04-16T13:53:46.265Z,99452.33
2019-04-16T13:56:25.290Z,99456.52
2019-04-16T13:59:17.796Z,99448.28
2019-04-16T14:02:01.069Z,99432.80
2019-04-16T14:04:31.749Z,99432.81
2019-04-16T14:07:01.491Z,99426.82
2019-04-16T14:09:31.012Z,99428.63
2019-04-16T14:12:00.538Z,99426.67
2019-04-16T14:14:29.934Z,99435.79
2019-04-16T14:17:08.948Z,99432.52
2019-04-16T14:19:30.686Z,99435.77
2019-04-16T14:22:00.124Z,99437.34
2019-04-16T14:24:29.588Z,99431.16
2019-04-16T14:26:59.045Z,99429.47
2019-04-16T14:29:28.567Z,99426.58
2019-04-16T14:31:58.032Z,99425.72
2019-04-16T14:34:49.455Z,99418.67
2019-04-16T14:37:19.590Z,99421.34
2019-04-16T14:39:56.013Z,99419.28
2019-04-16T14:42:25.882Z,99411.77
2019-04-16T14:44:59.672Z,99415.26
2019-04-16T14:47:29.856Z,99418.12
2019-04-16T14:50:00.295Z,99412.14
2019-04-16T14:52:29.781Z,99420.23
2019-04-16T14:55:08.729Z,99416.59
2019-04-16T14:57:57.259Z,99415.97
2019-04-16T15:00:39.488Z,99422.52
2019-04-16T15:03:18.057Z,99424.60
2019-04-16T15:06:03.444Z,99422.81
2019-04-16T15:09:07.376Z,99422.98
2019-04-16T15:11:54.600Z,99427.63
2019-04-16T15:14:36.242Z,99429.10
2019-04-16T15:17:17.719Z,99437.13
2019-04-16T15:19:51.444Z,99437.13
2019-04-16T15:22:31.249Z,99455.53
2019-04-16T15:25:25.647Z,99463.16
2019-04-16T15:28:01.070Z,99476.99
2019-04-16T15:30:52.064Z,99482.70
2019-04-16T15:33:43.420Z,99482.77
2019-04-16T15:36:34.926Z,99478.52
2019-04-16T15:39:35.362Z,99471.73
2019-04-16T15:42:09.220Z,99462.64
2019-04-16T15:44:42.571Z,99459.69
2019-04-16T15:47:32.102Z,99447.22
2019-04-16T15:50:25.696Z,99447.20
2019-04-16T15:52:58.561Z,99447.91
2019-04-16T15:55:47.393Z,99438.86
2019-04-16T15:58:34.390Z,99446.28
2019-04-16T16:01:34.803Z,99451.85
2019-04-16T16:04:22.626Z,99456.33
2019-04-16T16:07:08.828Z,99451.77
2019-04-16T16:09:59.053Z,99450.55
2019-04-16T16:12:30.530Z,99443.83
2019-04-16T16:15:00.374Z,99442.85
2019-04-16T16:17:29.757Z,99439.79
2019-04-16T16:19:59.320Z,99431.28
2019-04-16T16:22:28.971Z,99432.72
2019-04-16T16:24:58.540Z,99432.20
2019-04-16T16:27:27.931Z,99434.54
2019-04-16T16:29:57.516Z,99435.98
2019-04-16T16:32:27.070Z,99430.13
2019-04-16T16:34:56.690Z,99428.55
2019-04-16T16:37:26.131Z,99434.22
2019-04-16T16:39:55.605Z,99436.81
2019-04-16T16:42:25.035Z,99437.25
2019-04-16T16:44:54.642Z,99439.66
2019-04-16T16:47:30.329Z,99434.63
2019-04-16T16:49:59.866Z,99442.27
2019-04-16T16:53:06.884Z,99445.58
2019-04-16T16:55:58.418Z,99450.44
2019-04-16T16:58:47.245Z,99457.53
2019-04-16T17:01:54.606Z,99456.66
2019-04-16T17:04:28.498Z,99455.48
2019-04-16T17:06:58.083Z,99458.47
2019-04-16T17:09:36.485Z,99459.53
2019-04-16T17:12:07.137Z,99464.40
2019-04-16T17:14:37.895Z,99469.08
2019-04-16T17:17:13.822Z,99473.13
2019-04-16T17:19:40.430Z,99455.27
2019-04-16T17:22:09.888Z,99466.82
2019-04-16T17:24:39.461Z,99465.81
2019-04-16T17:27:09.060Z,99473.97
2019-04-16T17:29:38.549Z,99474.34
2019-04-16T17:32:08.219Z,99477.77
2019-04-16T17:34:39.761Z,99483.34
2019-04-16T17:37:09.066Z,99474.34
2019-04-16T17:39:51.072Z,99481.16
2019-04-16T17:42:23.338Z,99481.38
2019-04-16T17:45:10.402Z,99482.12
2019-04-16T17:48:04.213Z,99489.50
2019-04-16T17:50:46.807Z,99486.73
2019-04-16T17:53:25.271Z,99492.80
2019-04-16T17:56:32.382Z,99499.63
2019-04-16T17:59:08.361Z,99500.48
2019-04-16T18:02:08.897Z,99501.17
2019-04-16T18:04:46.301Z,99508.34
2019-04-16T18:07:34.658Z,99514.50
2019-04-16T18:10:26.785Z,99514.84
2019-04-16T18:13:06.839Z,99518.97
2019-04-16T18:15:53.477Z,99522.88
2019-04-16T18:18:26.517Z,99522.11
2019-04-16T18:21:26.993Z,99524.77
2019-04-16T18:24:04.965Z,99532.58
2019-04-16T18:26:51.006Z,99529.66
2019-04-16T18:29:31.803Z,99528.63
2019-04-16T18:32:33.698Z,99535.64
2019-04-16T18:35:21.364Z,99532.34
2019-04-16T18:38:15.026Z,99536.44
2019-04-16T18:40:47.926Z,99533.04
2019-04-16T18:43:35.038Z,99536.47
2019-04-16T18:46:35.379Z,99540.77
2019-04-16T18:49:08.531Z,99527.41
2019-04-16T18:51:37.975Z,99535.48
2019-04-16T18:54:07.420Z,99531.71
2019-04-16T18:56:36.914Z,99537.67
2019-04-16T18:59:06.348Z,99538.27
2019-04-16T19:01:36.699Z,99540.55
2019-04-16T19:04:06.131Z,99532.21
2019-04-16T19:06:35.611Z,99539.16
2019-04-16T19:09:06.706Z,99540.56
2019-04-16T19:11:36.126Z,99538.22
2019-04-16T19:14:05.574Z,99534.24
2019-04-16T19:16:35.171Z,99544.97
2019-04-16T19:19:04.592Z,99541.95
2019-04-16T19:21:34.031Z,99546.72
2019-04-16T19:24:03.494Z,99543.70
2019-04-16T19:26:33.265Z,99537.76
2019-04-16T19:29:05.361Z,99535.95
2019-04-16T19:31:33.863Z,99533.51
2019-04-16T19:34:08.371Z,99538.61
2019-04-16T19:36:34.654Z,99536.74
2019-04-16T19:39:07.115Z,99540.17
2019-04-16T19:41:41.247Z,99546.42
2019-04-16T19:44:09.681Z,99541.26
2019-04-16T19:46:39.134Z,99540.33
2019-04-16T19:49:08.600Z,99544.69
2019-04-16T19:51:41.226Z,99543.16
2019-04-16T19:54:09.226Z,99546.01
2019-04-16T19:56:38.640Z,99544.41
2019-04-16T19:59:08.093Z,99544.13
2019-04-16T20:01:37.553Z,99535.13
2019-04-16T20:04:10.633Z,99537.30
2019-04-16T20:06:38.227Z,99540.52
2019-04-16T20:09:08.087Z,99535.90
2019-04-16T20:11:37.506Z,99532.01
2019-04-16T20:14:06.934Z,99529.07
2019-04-16T20:16:36.432Z,99536.05
2019-04-16T20:19:05.878Z,99536.23
2019-04-16T20:21:37.708Z,99525.92
2019-04-16T20:24:06.982Z,99537.27
2019-04-16T20:26:36.516Z,99530.64
2019-04-16T20:29:06.189Z,99531.56
2019-04-16T20:31:36.200Z,99524.66
2019-04-16T20:34:05.624Z,99528.88
2019-04-16T20:36:35.244Z,99524.16
2019-04-16T20:39:07.035Z,99524.81
2019-04-16T20:41:36.476Z,99522.08
2019-04-16T20:44:09.130Z,99528.22
2019-04-16T20:46:37.232Z,99525.77
2019-04-16T20:49:10.379Z,99525.89
2019-04-16T20:51:37.885Z,99522.11
2019-04-16T20:54:12.869Z,99526.08
2019-04-16T20:56:40.524Z,99530.97
2019-04-16T20:59:09.677Z,99533.58
2019-04-16T21:01:39.150Z,99529.33
2019-04-16T21:04:08.585Z,99528.00
2019-04-16T21:06:41.261Z,99526.77
2019-04-16T21:09:09.464Z,99531.38
2019-04-16T21:11:40.982Z,99524.79
2019-04-16T21:14:10.037Z,99530.75
2019-04-16T21:16:39.446Z,99530.17
2019-04-16T21:19:22.233Z,99529.05
2019-04-16T21:21:40.241Z,99528.53
2019-04-16T21:24:13.394Z,99528.81
2019-04-16T21:26:40.797Z,99522.67
2019-04-16T21:29:34.679Z,99515.88
2019-04-16T21:32:10.324Z,99517.44
2019-04-16T21:34:42.049Z,99515.73
2019-04-16T21:37:29.201Z,99515.40
2019-04-16T21:40:00.565Z,99514.89
2019-04-16T21:42:34.404Z,99516.53
2019-04-16T21:45:01.369Z,99514.55
2019-04-16T21:47:30.782Z,99517.53
2019-04-16T21:50:00.207Z,99515.45
2019-04-16T21:52:29.779Z,99517.72
2019-04-16T21:55:02.530Z,99512.33
2019-04-16T21:57:30.312Z,99512.67
2019-04-16T21:59:59.767Z,99508.63
2019-04-16T22:02:34.546Z,99514.38
2019-04-16T22:05:03.026Z,99506.11
2019-04-16T22:07:32.393Z,99507.56
2019-04-16T22:10:02.132Z,99510.73
2019-04-16T22:12:31.798Z,99515.58
2019-04-16T22:15:01.230Z,99512.97
2019-04-16T22:17:35.536Z,99510.67
2019-04-16T22:20:04.098Z,99509.97
2019-04-16T22:22:33.067Z,99502.60
2019-04-16T22:25:02.487Z,99506.36
2019-04-16T22:27:31.999Z,99510.05
2019-04-16T22:30:01.478Z,99511.13
2019-04-16T22:32:31.318Z,99515.48
2019-04-16T22:35:00.795Z,99515.09
2019-04-16T22:37:30.302Z,99516.42
2019-04-16T22:40:07.556Z,99519.23
2019-04-16T22:42:57.423Z,99517.44
2019-04-16T22:45:32.798Z,99522.25
2019-04-16T22:48:04.876Z,99521.48
2019-04-16T22:50:37.814Z,99514.20
2019-04-16T22:53:06.024Z,99520.73
2019-04-16T22:55:35.708Z,99510.72
2019-04-16T22:58:05.414Z,99518.31
2019-04-16T23:00:37.854Z,99512.27
2019-04-16T23:03:07.336Z,99520.27
2019-04-16T23:05:36.753Z,99515.46
2019-04-16T23:08:08.798Z,99516.95
2019-04-16T23:10:37.504Z,99523.55
2019-04-16T23:13:07.043Z,99522.08
2019-04-16T23:15:37.832Z,99520.63
2019-04-16T23:18:07.199Z,99521.14
2019-04-16T23:20:37.183Z,99519.23
2019-04-16T23:23:07.946Z,99512.88
2019-04-16T23:25:37.358Z,99513.95
2019-04-16T23:28:10.972Z,99510.55
2019-04-16T23:30:37.956Z,99518.08
2019-04-16T23:33:07.642Z,99519.63
2019-04-16T23:35:43.373Z,99523.28
2019-04-16T23:38:08.411Z,99521.36
2019-04-16T23:40:40.740Z,99518.94
2019-04-16T23:43:31.031Z,99519.41
2019-04-16T23:46:14.405Z,99523.20
2019-04-16T23:48:53.549Z,99518.09
2019-04-16T23:51:29.905Z,99517.23
2019-04-16T23:54:04.529Z,99522.81
2019-04-16T23:56:40.600Z,99517.23
2019-04-16T23:59:38.117Z,99518.30
